createdAt,value
2018-02-12T00:02:35.146Z,8.40
2018-02-12T00:17:38.080Z,9.20
2018-02-12T00:32:35.449Z,9.20
2018-02-12T00:47:34.444Z,9.10
2018-02-12T01:02:36.964Z,10.03
2018-02-12T01:17:34.882Z,9.07
2018-02-12T01:32:34.842Z,8.90
2018-02-12T01:47:41.083Z,8.30
2018-02-12T02:02:38.718Z,8.77
2018-02-12T02:17:37.447Z,10.50
2018-02-12T02:32:39.979Z,9.80
2018-02-12T02:47:38.872Z,10.77
2018-02-12T03:02:34.392Z,10.40
2018-02-12T03:17:35.335Z,9.50
2018-02-12T03:32:35.191Z,9.13
2018-02-12T03:47:36.026Z,9.70
2018-02-12T04:02:37.130Z,9.63
2018-02-12T04:17:34.589Z,9.83
2018-02-12T04:32:34.547Z,9.93
2018-02-12T04:47:35.401Z,9.90
2018-02-12T05:02:37.335Z,10.87
2018-02-12T05:17:34.814Z,10.80
2018-02-12T05:32:36.719Z,11.67
2018-02-12T05:47:34.690Z,10.70
2018-02-12T06:02:34.544Z,10.17
2018-02-12T06:17:34.484Z,10.50
2018-02-12T06:32:36.984Z,13.50
2018-02-12T06:47:36.851Z,14.60
2018-02-12T07:02:34.870Z,12.97
2018-02-12T07:17:40.310Z,13.00
2018-02-12T07:32:36.662Z,17.23
2018-02-12T07:47:37.768Z,14.47
2018-02-12T08:02:35.110Z,12.27
2018-02-12T08:17:36.528Z,12.60
2018-02-12T08:32:34.539Z,12.80
2018-02-12T08:47:38.900Z,14.90
2018-02-12T09:02:35.613Z,12.60
2018-02-12T09:17:34.015Z,12.10
2018-02-12T09:32:34.011Z,16.03
2018-02-12T09:47:33.936Z,14.60
2018-02-12T10:02:35.826Z,15.90
2018-02-12T10:17:34.271Z,17.47
2018-02-12T10:32:34.426Z,21.27
2018-02-12T10:47:34.143Z,12.87
2018-02-12T11:02:34.286Z,21.60
2018-02-12T11:17:37.452Z,23.77
2018-02-12T11:32:37.134Z,26.40
2018-02-12T11:47:36.423Z,27.80
2018-02-12T12:02:33.306Z,27.40
2018-02-12T12:17:34.501Z,26.97
2018-02-12T12:32:34.414Z,23.63
2018-02-12T12:47:34.648Z,26.67
2018-02-12T13:02:35.190Z,27.90
2018-02-12T13:17:36.896Z,26.20
2018-02-12T13:32:34.639Z,27.43
2018-02-12T13:47:36.524Z,28.87
2018-02-12T14:02:35.286Z,31.37
2018-02-12T14:17:34.287Z,33.27
2018-02-12T14:32:34.156Z,31.00
2018-02-12T14:47:34.092Z,33.80
2018-02-12T15:02:34.730Z,36.50
2018-02-12T15:17:34.607Z,36.20
2018-02-12T15:32:35.094Z,34.20
2018-02-12T15:47:35.046Z,31.40
2018-02-12T16:02:36.970Z,29.80
2018-02-12T16:17:34.957Z,36.37
2018-02-12T16:32:36.817Z,43.67
2018-02-12T16:47:37.282Z,49.07
2018-02-12T17:02:35.214Z,38.27
2018-02-12T17:17:34.639Z,34.73
2018-02-12T17:32:38.660Z,37.33
2018-02-12T17:47:38.232Z,52.17
2018-02-12T18:17:36.194Z,72.73
2018-02-12T18:47:39.621Z,75.23
2018-02-12T19:17:38.190Z,45.67
2018-02-12T19:32:41.012Z,40.50
2018-02-12T19:47:42.434Z,39.70
2018-02-12T20:02:51.481Z,39.00
2018-02-12T20:17:34.479Z,39.40
2018-02-12T20:32:35.730Z,49.47
2018-02-12T20:47:35.770Z,54.33
2018-02-12T21:02:35.554Z,64.23
2018-02-12T21:17:36.502Z,63.63
2018-02-12T21:32:34.662Z,67.00
2018-02-12T21:47:37.325Z,68.40
2018-02-12T22:02:36.970Z,62.27
2018-02-12T22:17:38.439Z,52.47
2018-02-12T22:32:35.803Z,44.57
2018-02-12T22:47:37.526Z,49.20
2018-02-12T23:02:37.063Z,46.47
2018-02-12T23:17:34.958Z,44.60
2018-02-12T23:32:37.876Z,36.53
2018-02-12T23:47:36.076Z,29.67
